Latest Weather Observations for Warburton

IDW60801

Issued at 9:02 pm WST Thursday 18 December 2014 (issued every 30 minutes, with the page automatically refreshed every 10 minutes)

About weather observations | Map of weather stations | Latest weather observations for WA | Other Formats
Station Details ID: 013011 Name: WARBURTON AIRFIELD Lat: -26.13 Lon: 126.58 Height: 459.0 m
Data from the previous 72 hours. | See also: Recent months at Warburton
Date/Time
WST
Temp
°C
App
Temp
°C
Dew
Point
Rel
Hum
%
Delta-T
°C
Wind Press
QNH
hPa
Press
MSL
hPa
Rain
since 9 am
mm
Dir
 
Spd
km/h
Gust
km/h
Spd
kts
Gust
kts
18/09:00pm 29.9 27.7 16.0 43 8.8 E 22 32 12 17 1014.8 1011.4 0.0
18/08:30pm 30.3 27.9 16.3 42 8.9 ESE 24 35 13 19 1014.1 - 0.0
18/08:00pm 30.6 28.8 17.0 44 8.7 ESE 22 32 12 17 1014.2 - 0.0
18/07:30pm 30.8 28.2 16.8 43 9.0 ESE 26 35 14 19 1013.6 - 0.0
18/07:00pm 31.2 29.7 16.8 42 9.2 ESE 20 30 11 16 1013.1 - 0.0
18/06:30pm 31.4 28.8 17.7 44 8.9 SE 28 39 15 21 1012.5 - 0.0
18/06:00pm 31.9 29.9 17.4 42 9.4 SE 24 33 13 18 1012.4 1009.0 0.0
18/05:30pm 32.6 30.5 18.0 41 9.6 SE 26 35 14 19 1011.8 - 0.0
18/05:00pm 32.8 30.8 18.2 42 9.6 SE 26 35 14 19 1011.3 - 0.0
18/04:30pm 33.8 32.4 18.7 40 10.0 ESE 24 39 13 21 1011.3 - 0.0
18/04:00pm 33.3 32.4 19.0 42 9.5 ESE 22 32 12 17 1011.4 - 0.0
18/03:30pm 33.8 33.8 19.8 43 9.4 ESE 19 33 10 18 1011.6 - 0.0
18/03:00pm 33.6 33.7 20.0 44 9.2 SE 19 39 10 21 1011.7 1008.4 0.0
18/02:30pm 33.6 34.1 20.0 44 9.2 SE 17 28 9 15 1012.0 - 0.0
18/02:00pm 33.5 33.2 20.3 46 8.9 SE 22 33 12 18 1012.1 - 0.0
18/01:30pm 32.8 32.7 20.0 47 8.6 E 20 33 11 18 1012.4 - 0.0
18/01:00pm 32.7 33.1 20.6 49 8.2 ESE 19 30 10 16 1012.6 - 0.0
18/12:30pm 32.4 32.5 20.3 48 8.2 ESE 20 32 11 17 1012.8 - 0.0
18/12:00pm 31.1 32.2 20.4 53 7.2 E 15 24 8 13 1013.0 1009.6 0.0
18/11:30am 30.1 31.3 20.6 56 6.4 E 15 24 8 13 1013.5 - 0.0
18/11:00am 30.0 31.6 21.4 60 5.9 ESE 15 22 8 12 1013.9 - 0.0
18/10:30am 28.4 30.2 21.2 65 4.9 SSE 13 22 7 12 1013.9 - 0.0
18/10:00am 28.1 30.4 22.1 70 4.1 ESE 13 24 7 13 1013.7 - 0.0
18/09:30am 27.2 29.4 21.9 73 3.6 ESE 13 19 7 10 1013.9 - 0.0
18/09:00am 26.7 29.2 22.5 78 2.9 SE 13 20 7 11 1013.7 1010.4 7.8
18/08:30am 26.2 29.3 22.1 78 2.8 SE 9 13 5 7 1013.7 - 7.8
18/08:00am 26.5 29.2 22.1 77 3.0 E 11 15 6 8 1013.4 - 7.8
18/07:30am 25.3 27.0 22.4 84 2.0 SE 17 22 9 12 1013.4 - 7.8
18/07:00am 25.2 28.1 22.5 85 1.8 SSE 11 17 6 9 1013.1 - 7.8
18/06:30am 24.5 27.5 22.6 89 1.3 SSE 11 15 6 8 1012.8 - 7.8
18/06:00am 24.2 27.9 22.5 90 1.2 E 7 9 4 5 1012.1 1008.8 7.8
18/05:30am 23.4 27.4 23.1 98 0.2 NNE 7 11 4 6 1011.3 - 7.8
18/05:00am 22.8 26.7 22.6 99 0.1 NE 6 9 3 5 1010.8 - 7.8
18/04:30am 22.7 25.9 22.4 98 0.2 N 9 11 5 6 1010.3 - 7.8
18/04:00am 22.8 26.5 22.5 98 0.2 NNE 7 9 4 5 1010.1 - 7.8
18/03:30am 23.0 26.4 22.7 98 0.2 NNE 9 13 5 7 1009.7 - 7.8
18/03:00am 22.8 26.5 22.5 98 0.2 NE 7 11 4 6 1009.5 1006.2 7.8
18/02:30am 22.8 25.7 22.5 98 0.2 NNE 11 17 6 9 1009.1 - 7.8
18/02:00am 22.8 25.7 22.5 98 0.2 ENE 11 15 6 8 1008.8 - 7.8
18/01:30am 22.9 26.1 22.4 97 0.3 NNE 9 15 5 8 1008.4 - 7.8
18/01:00am 22.9 25.4 22.4 97 0.3 NE 13 17 7 9 1008.4 - 7.8
18/12:30am 22.9 25.6 22.2 96 0.5 NE 11 17 6 9 1008.5 - 7.8
18/12:00am 22.9 25.5 22.6 98 0.2 ENE 13 17 7 9 1008.4 1005.0 7.8
 
Date/Time
WST
Temp
°C
App
Temp
°C
Dew
Point
Rel
Hum
%
Delta-T
°C
Wind Press
QNH
hPa
Press
MSL
hPa
Rain
since 9 am
mm
Dir
 
Spd
km/h
Gust
km/h
Spd
kts
Gust
kts
17/11:30pm 22.9 25.5 22.6 98 0.2 NNE 13 20 7 11 1008.4 - 7.8
17/11:00pm 22.7 24.8 22.4 98 0.2 NE 15 22 8 12 1008.8 - 7.6
17/10:30pm 23.0 24.3 21.6 92 0.9 ENE 17 24 9 13 1009.1 - 7.4
17/10:00pm 23.1 24.0 21.9 93 0.8 ENE 20 30 11 16 1009.3 - 7.4
17/09:30pm 23.1 23.9 22.4 96 0.5 ENE 22 32 12 17 1009.0 - 7.4
17/09:00pm 23.2 24.8 22.9 98 0.2 NE 19 28 10 15 1009.5 1006.2 7.4
17/08:30pm 23.2 24.6 22.9 98 0.2 E 20 32 11 17 1008.3 - 7.4
17/08:00pm 23.0 23.5 22.7 98 0.2 E 24 35 13 19 1008.0 - 7.4
17/07:30pm 23.7 25.6 23.4 98 0.2 E 19 26 10 14 1008.1 - 7.2
17/07:00pm 23.2 24.8 22.9 98 0.2 ESE 19 24 10 13 1008.5 - 7.2
17/06:30pm 23.3 24.7 22.5 95 0.5 S 19 32 10 17 1009.0 - 6.4
17/06:28pm 23.3 24.5 22.5 95 0.5 S 20 32 11 17 1008.7 - 6.4
17/06:00pm 24.4 24.3 22.3 88 1.4 S 26 37 14 20 1006.5 1003.1 6.0
17/05:43pm 24.4 23.3 23.4 94 0.7 S 35 54 19 29 1005.0 - 5.8
17/05:30pm 24.7 22.9 22.9 90 1.2 SSE 37 54 20 29 1004.5 - 5.8
17/05:20pm 23.4 22.3 21.7 90 1.1 S 30 85 16 46 1005.2 - 5.4
17/05:19pm 23.4 22.5 20.7 85 1.8 S 26 85 14 46 1005.2 - 4.8
17/05:17pm 22.8 17.4 19.2 80 2.3 WSW 46 85 25 46 1005.4 - 2.6
17/05:13pm 28.4 23.6 19.6 59 5.8 WSW 44 63 24 34 1005.7 - 0.0
17/05:08pm 30.3 24.5 18.4 49 7.8 SW 46 72 25 39 1004.4 - 0.0
17/05:00pm 32.8 28.5 17.8 40 9.8 W 37 56 20 30 1003.7 - 0.0
17/04:56pm 35.1 29.8 17.3 34 11.6 W 41 56 22 30 1003.5 - 0.0
17/04:30pm 38.5 36.4 16.2 27 14.5 NW 22 28 12 15 1001.9 - 0.0
17/04:00pm 39.3 36.2 15.6 24 15.3 NNW 26 39 14 21 1001.8 - 0.0
17/03:30pm 39.5 36.5 15.8 24 15.4 NNW 26 43 14 23 1002.0 - 0.0
17/03:00pm 40.2 36.7 16.4 25 15.7 NNW 30 39 16 21 1002.5 999.1 0.0
17/02:30pm 40.4 36.7 15.9 23 16.0 WNW 30 46 16 25 1003.2 - 0.0
17/02:00pm 39.2 35.6 16.2 26 15.0 NNW 30 44 16 24 1003.7 - 0.0
17/01:35pm 39.6 36.1 16.5 25 15.1 NW 30 52 16 28 1004.2 - 0.0
17/01:30pm 38.4 35.4 16.7 28 14.2 NW 28 41 15 22 1004.4 - 0.0
17/01:05pm 38.5 35.5 16.7 27 14.3 NW 28 46 15 25 1004.9 - 0.0
17/01:00pm 39.7 36.5 17.2 27 14.9 NW 30 46 16 25 1005.0 - 0.0
17/12:30pm 38.3 35.4 17.1 28 14.0 NNW 28 43 15 23 1005.6 - 0.0
17/12:07pm 36.9 34.0 17.0 31 13.0 NNW 28 46 15 25 1006.0 - 0.0
17/12:00pm 38.0 34.9 17.4 29 13.6 NNW 30 44 16 24 1006.1 1002.7 0.0
17/11:30am 37.1 33.8 17.1 30 13.1 NNW 30 41 16 22 1006.6 - 0.0
17/11:23am 36.9 33.6 17.0 31 13.0 NNW 30 48 16 26 1006.8 - 0.0
17/11:00am 35.7 32.2 17.4 33 12.0 NNW 32 43 17 23 1007.2 - 0.0
17/10:30am 35.7 31.4 17.9 35 11.8 N 37 48 20 26 1007.8 - 0.0
17/10:00am 34.1 30.1 18.6 40 10.3 N 37 48 20 26 1008.3 - 0.0
17/09:30am 32.7 29.2 18.8 43 9.2 N 35 46 19 25 1008.7 - 0.0
17/09:00am 31.9 28.2 19.2 47 8.5 N 37 48 20 26 1008.9 1005.5 0.0
17/08:30am 31.0 27.2 19.7 51 7.5 N 39 52 21 28 1009.1 - 0.0
17/08:00am 30.2 25.2 18.9 50 7.5 N 43 54 23 29 1009.4 - 0.0
17/07:30am 29.3 25.8 19.6 56 6.4 N 37 48 20 26 1009.7 - 0.0
17/07:00am 29.2 26.4 19.5 56 6.4 N 33 41 18 22 1009.6 - 0.0
17/06:30am 27.9 26.4 20.2 63 5.1 N 28 41 15 22 1009.6 - 0.0
17/06:16am 27.9 26.2 19.7 61 5.4 N 28 41 15 22 1009.5 - 0.0
17/06:00am 28.1 28.6 19.3 58 5.8 N 15 22 8 12 1009.0 1005.6 0.0
17/05:30am 27.1 28.2 19.7 64 4.9 NNE 13 19 7 10 1008.2 - 0.0
17/05:00am 26.4 28.6 20.3 69 4.1 N 9 11 5 6 1007.7 - 0.0
17/04:30am 26.4 28.6 20.3 69 4.1 N 9 13 5 7 1007.7 - 0.0
17/04:00am 26.2 28.8 20.5 71 3.8 NE 7 11 4 6 1007.3 - 0.0
17/03:30am 26.4 28.6 20.5 70 3.9 NNE 9 15 5 8 1007.2 - 0.0
17/03:00am 26.3 28.5 20.4 70 3.9 NE 9 11 5 6 1007.0 1003.6 0.0
17/02:30am 26.4 28.6 20.3 69 4.1 ENE 9 11 5 6 1007.1 - 0.0
17/02:00am 26.7 28.8 20.1 67 4.4 NNE 9 11 5 6 1007.3 - 0.0
17/01:30am 26.8 29.0 19.7 65 4.7 NE 7 9 4 5 1007.5 - 0.0
17/01:00am 27.2 29.4 19.3 62 5.2 NE 6 9 3 5 1007.7 - 0.0
17/12:30am 27.7 29.2 19.0 59 5.7 ENE 9 11 5 6 1007.7 - 0.0
17/12:00am 28.1 29.4 18.5 56 6.3 ENE 9 13 5 7 1008.1 1004.7 0.0
 
Date/Time
WST
Temp
°C
App
Temp
°C
Dew
Point
Rel
Hum
%
Delta-T
°C
Wind Press
QNH
hPa
Press
MSL
hPa
Rain
since 9 am
mm
Dir
 
Spd
km/h
Gust
km/h
Spd
kts
Gust
kts
16/11:30pm 28.6 29.5 18.4 54 6.6 NE 11 15 6 8 1008.5 - 0.0
16/11:00pm 28.9 29.4 18.4 53 6.8 NE 13 20 7 11 1008.7 - 0.0
16/10:30pm 29.1 29.1 18.2 51 7.1 NE 15 20 8 11 1009.3 - 0.0
16/10:00pm 30.0 28.2 17.8 48 7.9 NE 24 37 13 20 1009.6 - 0.0
16/09:30pm 31.1 28.9 14.3 36 10.4 E 19 24 10 13 1009.5 - 0.0
16/09:00pm 31.2 29.0 14.4 36 10.4 ESE 19 26 10 14 1009.2 1005.8 0.0
16/08:30pm 31.6 29.4 14.3 35 10.7 ESE 19 28 10 15 1008.9 - 0.0
16/08:00pm 32.1 30.6 14.3 34 11.1 ESE 15 20 8 11 1008.6 - 0.0
16/07:30pm 32.3 30.1 14.4 33 11.1 ESE 19 26 10 14 1008.4 - 0.0
16/07:00pm 32.7 30.3 13.8 31 11.7 SE 19 26 10 14 1008.1 - 0.0
16/06:30pm 33.4 31.4 14.0 31 12.1 SE 17 24 9 13 1007.3 - 0.0
16/06:00pm 34.2 31.7 14.1 29 12.6 SSE 20 24 11 13 1006.6 1003.2 0.0
16/05:30pm 35.0 32.6 14.3 29 13.0 SE 20 28 11 15 1006.2 - 0.0
16/05:00pm 36.2 33.9 14.2 26 13.8 SSE 19 30 10 16 1006.0 - 0.0
16/04:30pm 36.3 33.9 13.7 25 14.1 SSE 19 28 10 15 1005.8 - 0.0
16/04:00pm 36.5 34.1 13.9 26 14.2 SSE 19 28 10 15 1005.9 - 0.0
16/03:30pm 36.7 34.6 14.6 26 14.0 SE 19 28 10 15 1006.4 - 0.0
16/03:00pm 36.5 34.1 14.5 27 13.9 S 20 30 11 16 1006.6 1003.2 0.0
16/02:30pm 36.3 34.1 14.9 28 13.6 SSE 20 28 11 15 1007.0 - 0.0
16/02:00pm 35.4 33.5 15.2 30 12.9 SSE 19 28 10 15 1007.7 - 0.0
16/01:30pm 35.5 34.6 15.8 31 12.6 SE 15 26 8 14 1008.3 - 0.0
16/01:00pm 35.0 34.6 16.3 32 12.1 SSW 13 20 7 11 1008.7 - 0.0
16/12:30pm 34.4 34.4 16.3 34 11.7 SE 11 20 6 11 1009.0 - 0.0
16/12:00pm 32.9 32.7 16.7 38 10.5 SSE 13 28 7 15 1009.4 1006.1 0.0
16/11:30am 32.1 31.2 16.8 40 9.9 S 17 30 9 16 1009.7 - 0.0
16/11:00am 31.5 30.7 17.0 41 9.3 SSE 17 22 9 12 1010.1 - 0.0
16/10:30am 30.6 29.9 17.3 45 8.6 SSE 17 26 9 14 1010.4 - 0.0
16/10:00am 29.3 28.8 17.8 50 7.4 S 17 28 9 15 1010.5 - 0.0
16/09:30am 28.2 27.1 17.4 52 6.9 S 19 26 10 14 1010.6 - 0.0
16/09:00am 27.8 26.5 18.2 56 6.2 SSW 22 30 12 16 1010.5 1007.1 6.8
16/08:30am 27.1 26.4 18.7 60 5.5 SSW 20 26 11 14 1010.7 - 6.8
16/08:00am 26.8 27.1 19.7 65 4.7 S 17 22 9 12 1010.6 - 6.8
16/07:30am 26.2 25.9 19.1 65 4.6 SSW 19 24 10 13 1010.4 - 6.8
16/07:00am 25.0 24.6 19.4 71 3.7 SSW 20 26 11 14 1010.2 - 6.8
16/06:44am 24.6 22.9 19.7 74 3.2 SSW 28 35 15 19 1010.3 - 6.8
16/06:30am 27.4 29.6 21.2 69 4.2 W 11 15 6 8 1010.2 - 6.8
16/06:00am 26.2 28.8 21.2 74 3.4 WNW 9 13 5 7 1009.8 1006.5 6.8
16/05:30am 25.3 28.1 20.5 75 3.2 WNW 6 7 3 4 1009.4 - 6.8
16/05:00am 24.7 26.6 20.6 78 2.7 N 11 15 6 8 1008.5 - 6.8
16/04:30am 24.3 26.2 20.6 80 2.5 N 11 15 6 8 1007.8 - 6.8
16/04:00am 24.9 26.6 20.2 75 3.1 NNW 11 17 6 9 1007.4 - 6.8
16/03:30am 25.0 26.4 20.3 75 3.1 N 13 20 7 11 1006.9 - 6.8
16/03:00am 25.2 26.3 20.5 75 3.1 N 15 20 8 11 1006.8 1003.4 6.8
16/02:30am 25.5 26.3 20.7 75 3.2 N 17 22 9 12 1006.7 - 6.8
16/02:00am 26.0 26.8 20.6 72 3.6 N 17 28 9 15 1006.1 - 6.8
16/01:30am 26.6 27.2 20.2 68 4.3 N 17 24 9 13 1006.0 - 6.8
16/01:00am 26.7 28.3 20.8 70 4.0 N 13 17 7 9 1005.6 - 6.8
16/12:30am 26.6 28.6 21.6 74 3.4 N 13 19 7 10 1005.7 - 6.8
16/12:00am 26.3 29.3 22.6 80 2.5 NNE 11 15 6 8 1005.9 1002.5 6.8
 
Date/Time
WST
Temp
°C
App
Temp
°C
Dew
Point
Rel
Hum
%
Delta-T
°C
Wind Press
QNH
hPa
Press
MSL
hPa
Rain
since 9 am
mm
Dir
 
Spd
km/h
Gust
km/h
Spd
kts
Gust
kts
15/11:30pm 26.3 29.0 22.2 78 2.8 NNE 11 17 6 9 1006.1 - 6.8
15/11:00pm 26.3 29.3 21.9 77 3.0 NNE 9 15 5 8 1006.7 - 6.8
15/10:30pm 26.3 30.2 22.6 80 2.5 ENE 6 9 3 5 1007.4 - 6.8
15/10:00pm 26.7 29.1 22.3 77 3.0 E 13 17 7 9 1007.4 - 6.8
15/09:30pm 27.2 30.4 22.4 75 3.3 ESE 9 13 5 7 1007.7 - 6.8

Other Formats:

Comma delimited format used in spreadsheet applications
http://www.bom.gov.au/fwo/IDW60801/IDW60801.94457.axf

JavaScript Object Notation format (JSON) in row-major order
http://www.bom.gov.au/fwo/IDW60801/IDW60801.94457.json